sensor_id;sensor_type;location;lat;lon;timestamp;P1;durP1;ratioP1;P2;durP2;ratioP2
35188;SDS011;21762;54.480;18.556;2022-07-21T00:00:21;6.82;;;5.00;;
35188;SDS011;21762;54.480;18.556;2022-07-21T00:02:51;7.82;;;5.10;;
35188;SDS011;21762;54.480;18.556;2022-07-21T00:05:20;5.85;;;4.60;;
35188;SDS011;21762;54.480;18.556;2022-07-21T00:07:48;7.45;;;4.55;;
35188;SDS011;21762;54.480;18.556;2022-07-21T00:10:17;6.45;;;4.25;;
35188;SDS011;21762;54.480;18.556;2022-07-21T00:12:46;8.60;;;4.93;;
35188;SDS011;21762;54.480;18.556;2022-07-21T00:15:16;8.05;;;5.38;;
35188;SDS011;21762;54.480;18.556;2022-07-21T00:17:45;7.78;;;5.40;;
35188;SDS011;21762;54.480;18.556;2022-07-21T00:20:14;7.93;;;5.50;;
35188;SDS011;21762;54.480;18.556;2022-07-21T00:22:43;11.90;;;6.05;;
35188;SDS011;21762;54.480;18.556;2022-07-21T00:25:12;7.75;;;5.75;;
35188;SDS011;21762;54.480;18.556;2022-07-21T00:27:41;7.85;;;5.85;;
35188;SDS011;21762;54.480;18.556;2022-07-21T00:30:09;8.52;;;5.45;;
35188;SDS011;21762;54.480;18.556;2022-07-21T00:32:41;10.15;;;5.57;;
35188;SDS011;21762;54.480;18.556;2022-07-21T00:35:10;11.98;;;6.88;;
35188;SDS011;21762;54.480;18.556;2022-07-21T00:37:39;7.53;;;5.28;;
35188;SDS011;21762;54.480;18.556;2022-07-21T00:40:09;9.30;;;6.28;;
35188;SDS011;21762;54.480;18.556;2022-07-21T00:42:40;7.13;;;5.88;;
35188;SDS011;21762;54.480;18.556;2022-07-21T00:45:09;7.88;;;5.20;;
35188;SDS011;21762;54.480;18.556;2022-07-21T00:47:38;7.78;;;5.32;;
35188;SDS011;21762;54.480;18.556;2022-07-21T00:50:08;10.77;;;5.95;;
35188;SDS011;21762;54.480;18.556;2022-07-21T00:55:06;7.75;;;5.43;;
35188;SDS011;21762;54.480;18.556;2022-07-21T00:57:36;11.05;;;6.15;;
35188;SDS011;21762;54.480;18.556;2022-07-21T01:00:06;7.45;;;5.72;;
35188;SDS011;21762;54.480;18.556;2022-07-21T01:02:36;9.68;;;6.03;;
35188;SDS011;21762;54.480;18.556;2022-07-21T01:05:05;10.32;;;5.82;;
35188;SDS011;21762;54.480;18.556;2022-07-21T01:07:37;9.90;;;6.40;;
35188;SDS011;21762;54.480;18.556;2022-07-21T01:10:05;8.73;;;6.22;;
35188;SDS011;21762;54.480;18.556;2022-07-21T01:12:33;8.90;;;6.40;;
35188;SDS011;21762;54.480;18.556;2022-07-21T01:15:02;11.20;;;6.10;;
35188;SDS011;21762;54.480;18.556;2022-07-21T01:17:30;9.63;;;6.18;;
35188;SDS011;21762;54.480;18.556;2022-07-21T01:19:59;14.95;;;6.82;;
35188;SDS011;21762;54.480;18.556;2022-07-21T01:22:32;9.35;;;6.05;;
35188;SDS011;21762;54.480;18.556;2022-07-21T01:25:01;9.57;;;6.40;;
35188;SDS011;21762;54.480;18.556;2022-07-21T01:27:30;11.98;;;7.32;;
35188;SDS011;21762;54.480;18.556;2022-07-21T01:29:59;10.70;;;6.55;;
35188;SDS011;21762;54.480;18.556;2022-07-21T01:32:27;9.73;;;5.70;;
35188;SDS011;21762;54.480;18.556;2022-07-21T01:34:55;9.52;;;5.93;;
35188;SDS011;21762;54.480;18.556;2022-07-21T01:37:23;10.43;;;6.30;;
35188;SDS011;21762;54.480;18.556;2022-07-21T01:39:57;7.88;;;5.97;;
35188;SDS011;21762;54.480;18.556;2022-07-21T01:42:42;8.63;;;5.78;;
35188;SDS011;21762;54.480;18.556;2022-07-21T01:45:10;8.98;;;6.25;;
35188;SDS011;21762;54.480;18.556;2022-07-21T01:47:38;9.27;;;6.15;;
35188;SDS011;21762;54.480;18.556;2022-07-21T01:50:07;11.60;;;5.97;;
35188;SDS011;21762;54.480;18.556;2022-07-21T01:52:36;9.20;;;7.18;;
35188;SDS011;21762;54.480;18.556;2022-07-21T01:55:06;8.02;;;5.72;;
35188;SDS011;21762;54.480;18.556;2022-07-21T01:57:34;10.35;;;7.13;;
35188;SDS011;21762;54.480;18.556;2022-07-21T02:00:03;9.65;;;6.13;;
35188;SDS011;21762;54.480;18.556;2022-07-21T02:02:32;12.30;;;7.47;;
35188;SDS011;21762;54.480;18.556;2022-07-21T02:05:00;13.20;;;7.20;;
35188;SDS011;21762;54.480;18.556;2022-07-21T02:07:28;10.40;;;6.35;;
35188;SDS011;21762;54.480;18.556;2022-07-21T02:09:56;9.32;;;6.25;;
35188;SDS011;21762;54.480;18.556;2022-07-21T02:12:26;10.68;;;7.13;;
35188;SDS011;21762;54.480;18.556;2022-07-21T02:14:54;12.82;;;6.78;;
35188;SDS011;21762;54.480;18.556;2022-07-21T02:17:25;12.95;;;7.25;;
35188;SDS011;21762;54.480;18.556;2022-07-21T02:19:54;23.02;;;7.72;;
35188;SDS011;21762;54.480;18.556;2022-07-21T02:22:23;11.63;;;6.85;;
35188;SDS011;21762;54.480;18.556;2022-07-21T02:24:51;13.13;;;6.80;;
35188;SDS011;21762;54.480;18.556;2022-07-21T02:27:19;12.02;;;7.15;;
35188;SDS011;21762;54.480;18.556;2022-07-21T02:29:48;11.23;;;6.60;;
35188;SDS011;21762;54.480;18.556;2022-07-21T02:32:16;14.70;;;7.45;;
35188;SDS011;21762;54.480;18.556;2022-07-21T02:34:44;8.68;;;5.80;;
35188;SDS011;21762;54.480;18.556;2022-07-21T02:37:13;8.85;;;6.88;;
35188;SDS011;21762;54.480;18.556;2022-07-21T02:39:41;9.85;;;7.13;;
35188;SDS011;21762;54.480;18.556;2022-07-21T02:42:10;12.80;;;6.78;;
35188;SDS011;21762;54.480;18.556;2022-07-21T02:44:38;9.15;;;7.35;;
35188;SDS011;21762;54.480;18.556;2022-07-21T02:47:07;11.32;;;6.93;;
35188;SDS011;21762;54.480;18.556;2022-07-21T02:49:35;13.20;;;7.45;;
35188;SDS011;21762;54.480;18.556;2022-07-21T02:52:04;9.95;;;7.40;;
35188;SDS011;21762;54.480;18.556;2022-07-21T02:54:32;11.57;;;6.38;;
35188;SDS011;21762;54.480;18.556;2022-07-21T02:57:00;7.93;;;6.15;;
35188;SDS011;21762;54.480;18.556;2022-07-21T02:59:29;8.55;;;6.35;;
35188;SDS011;21762;54.480;18.556;2022-07-21T03:01:57;11.52;;;7.55;;
35188;SDS011;21762;54.480;18.556;2022-07-21T03:04:26;11.05;;;6.85;;
35188;SDS011;21762;54.480;18.556;2022-07-21T03:06:54;14.00;;;7.00;;
35188;SDS011;21762;54.480;18.556;2022-07-21T03:09:22;12.85;;;6.97;;
35188;SDS011;21762;54.480;18.556;2022-07-21T03:11:55;9.48;;;6.90;;
35188;SDS011;21762;54.480;18.556;2022-07-21T03:14:23;10.68;;;7.45;;
35188;SDS011;21762;54.480;18.556;2022-07-21T03:16:51;10.60;;;7.55;;
35188;SDS011;21762;54.480;18.556;2022-07-21T03:19:19;11.18;;;7.15;;
35188;SDS011;21762;54.480;18.556;2022-07-21T03:21:48;13.52;;;7.45;;
35188;SDS011;21762;54.480;18.556;2022-07-21T03:24:17;12.60;;;8.05;;
35188;SDS011;21762;54.480;18.556;2022-07-21T03:26:45;16.67;;;8.63;;
35188;SDS011;21762;54.480;18.556;2022-07-21T03:29:13;13.52;;;8.23;;
35188;SDS011;21762;54.480;18.556;2022-07-21T03:31:41;12.15;;;7.70;;
35188;SDS011;21762;54.480;18.556;2022-07-21T03:34:09;11.93;;;7.72;;
35188;SDS011;21762;54.480;18.556;2022-07-21T03:36:38;11.18;;;7.22;;
35188;SDS011;21762;54.480;18.556;2022-07-21T03:39:07;12.13;;;7.88;;
35188;SDS011;21762;54.480;18.556;2022-07-21T03:41:35;13.10;;;8.40;;
35188;SDS011;21762;54.480;18.556;2022-07-21T03:44:03;17.38;;;8.10;;
35188;SDS011;21762;54.480;18.556;2022-07-21T03:46:32;11.75;;;8.18;;
35188;SDS011;21762;54.480;18.556;2022-07-21T03:49:00;11.57;;;8.60;;
35188;SDS011;21762;54.480;18.556;2022-07-21T03:51:28;10.10;;;7.40;;
35188;SDS011;21762;54.480;18.556;2022-07-21T03:53:56;11.23;;;7.40;;
35188;SDS011;21762;54.480;18.556;2022-07-21T03:56:27;14.80;;;7.18;;
35188;SDS011;21762;54.480;18.556;2022-07-21T03:58:55;24.83;;;7.82;;
35188;SDS011;21762;54.480;18.556;2022-07-21T04:01:23;9.38;;;7.10;;
35188;SDS011;21762;54.480;18.556;2022-07-21T04:03:51;12.80;;;8.50;;
35188;SDS011;21762;54.480;18.556;2022-07-21T04:06:19;9.93;;;7.10;;
35188;SDS011;21762;54.480;18.556;2022-07-21T04:08:48;9.93;;;6.97;;
35188;SDS011;21762;54.480;18.556;2022-07-21T04:11:16;10.25;;;6.32;;
35188;SDS011;21762;54.480;18.556;2022-07-21T04:13:45;14.48;;;8.40;;
35188;SDS011;21762;54.480;18.556;2022-07-21T04:16:13;13.98;;;7.88;;
35188;SDS011;21762;54.480;18.556;2022-07-21T04:18:41;12.95;;;9.27;;
35188;SDS011;21762;54.480;18.556;2022-07-21T04:21:10;16.75;;;9.30;;
35188;SDS011;21762;54.480;18.556;2022-07-21T04:23:38;16.23;;;9.40;;
35188;SDS011;21762;54.480;18.556;2022-07-21T04:26:06;14.48;;;9.25;;
35188;SDS011;21762;54.480;18.556;2022-07-21T04:28:34;12.35;;;9.02;;
35188;SDS011;21762;54.480;18.556;2022-07-21T04:31:04;14.77;;;10.02;;
35188;SDS011;21762;54.480;18.556;2022-07-21T04:33:32;17.25;;;10.85;;
35188;SDS011;21762;54.480;18.556;2022-07-21T04:36:03;19.30;;;10.60;;
35188;SDS011;21762;54.480;18.556;2022-07-21T04:38:31;16.88;;;9.60;;
35188;SDS011;21762;54.480;18.556;2022-07-21T04:41:00;18.05;;;10.23;;
35188;SDS011;21762;54.480;18.556;2022-07-21T04:43:28;17.25;;;9.50;;
35188;SDS011;21762;54.480;18.556;2022-07-21T04:45:56;14.65;;;9.50;;
35188;SDS011;21762;54.480;18.556;2022-07-21T04:48:26;16.63;;;8.88;;
35188;SDS011;21762;54.480;18.556;2022-07-21T04:50:54;12.68;;;9.13;;
35188;SDS011;21762;54.480;18.556;2022-07-21T04:53:22;14.32;;;9.07;;
35188;SDS011;21762;54.480;18.556;2022-07-21T04:55:50;9.95;;;7.85;;
35188;SDS011;21762;54.480;18.556;2022-07-21T04:58:18;13.00;;;8.82;;
35188;SDS011;21762;54.480;18.556;2022-07-21T05:00:46;13.98;;;7.63;;
35188;SDS011;21762;54.480;18.556;2022-07-21T05:03:14;13.43;;;7.60;;
35188;SDS011;21762;54.480;18.556;2022-07-21T05:05:44;12.35;;;7.53;;
35188;SDS011;21762;54.480;18.556;2022-07-21T05:08:12;11.57;;;7.55;;
35188;SDS011;21762;54.480;18.556;2022-07-21T05:10:40;14.65;;;6.97;;
35188;SDS011;21762;54.480;18.556;2022-07-21T05:13:08;10.90;;;6.25;;
35188;SDS011;21762;54.480;18.556;2022-07-21T05:15:36;8.63;;;6.57;;
35188;SDS011;21762;54.480;18.556;2022-07-21T05:18:06;8.07;;;5.90;;
35188;SDS011;21762;54.480;18.556;2022-07-21T05:20:34;9.60;;;6.22;;
35188;SDS011;21762;54.480;18.556;2022-07-21T05:23:04;8.07;;;5.97;;
35188;SDS011;21762;54.480;18.556;2022-07-21T05:25:32;12.10;;;5.85;;
35188;SDS011;21762;54.480;18.556;2022-07-21T05:28:02;8.32;;;6.07;;
35188;SDS011;21762;54.480;18.556;2022-07-21T05:30:30;9.05;;;6.10;;
35188;SDS011;21762;54.480;18.556;2022-07-21T05:32:58;13.60;;;5.45;;
35188;SDS011;21762;54.480;18.556;2022-07-21T05:35:27;14.25;;;5.88;;
35188;SDS011;21762;54.480;18.556;2022-07-21T05:37:55;8.75;;;5.97;;
35188;SDS011;21762;54.480;18.556;2022-07-21T05:40:27;9.50;;;5.22;;
35188;SDS011;21762;54.480;18.556;2022-07-21T05:42:57;9.83;;;5.13;;
35188;SDS011;21762;54.480;18.556;2022-07-21T05:45:25;9.18;;;4.78;;
35188;SDS011;21762;54.480;18.556;2022-07-21T05:47:53;8.55;;;5.32;;
35188;SDS011;21762;54.480;18.556;2022-07-21T05:50:21;6.15;;;4.72;;
35188;SDS011;21762;54.480;18.556;2022-07-21T05:52:49;8.35;;;4.72;;
35188;SDS011;21762;54.480;18.556;2022-07-21T05:55:17;12.38;;;4.55;;
35188;SDS011;21762;54.480;18.556;2022-07-21T05:57:47;9.90;;;5.03;;
35188;SDS011;21762;54.480;18.556;2022-07-21T06:00:15;9.68;;;5.00;;
35188;SDS011;21762;54.480;18.556;2022-07-21T06:02:44;6.85;;;4.50;;
35188;SDS011;21762;54.480;18.556;2022-07-21T06:05:12;6.47;;;4.13;;
35188;SDS011;21762;54.480;18.556;2022-07-21T06:07:40;7.03;;;4.63;;
35188;SDS011;21762;54.480;18.556;2022-07-21T06:10:11;6.38;;;4.65;;
35188;SDS011;21762;54.480;18.556;2022-07-21T06:12:40;9.90;;;6.10;;
35188;SDS011;21762;54.480;18.556;2022-07-21T06:15:10;8.77;;;4.82;;
35188;SDS011;21762;54.480;18.556;2022-07-21T06:17:39;7.03;;;4.45;;
35188;SDS011;21762;54.480;18.556;2022-07-21T06:20:08;7.57;;;4.10;;
35188;SDS011;21762;54.480;18.556;2022-07-21T06:22:37;8.48;;;4.70;;
35188;SDS011;21762;54.480;18.556;2022-07-21T06:25:05;8.38;;;4.53;;
35188;SDS011;21762;54.480;18.556;2022-07-21T06:27:34;7.60;;;4.75;;
35188;SDS011;21762;54.480;18.556;2022-07-21T06:30:03;8.10;;;4.00;;
35188;SDS011;21762;54.480;18.556;2022-07-21T06:32:34;5.88;;;4.35;;
35188;SDS011;21762;54.480;18.556;2022-07-21T06:35:02;12.70;;;4.00;;
35188;SDS011;21762;54.480;18.556;2022-07-21T06:37:31;6.03;;;4.05;;
35188;SDS011;21762;54.480;18.556;2022-07-21T06:39:59;5.07;;;3.78;;
35188;SDS011;21762;54.480;18.556;2022-07-21T06:42:27;4.60;;;3.28;;
35188;SDS011;21762;54.480;18.556;2022-07-21T06:44:55;6.22;;;3.75;;
35188;SDS011;21762;54.480;18.556;2022-07-21T06:47:23;6.88;;;4.00;;
35188;SDS011;21762;54.480;18.556;2022-07-21T06:49:53;5.93;;;4.07;;
35188;SDS011;21762;54.480;18.556;2022-07-21T06:52:22;8.65;;;3.88;;
35188;SDS011;21762;54.480;18.556;2022-07-21T06:54:50;5.32;;;3.75;;
35188;SDS011;21762;54.480;18.556;2022-07-21T06:57:19;11.65;;;4.75;;
35188;SDS011;21762;54.480;18.556;2022-07-21T06:59:47;9.02;;;4.00;;
35188;SDS011;21762;54.480;18.556;2022-07-21T07:02:15;5.03;;;3.95;;
35188;SDS011;21762;54.480;18.556;2022-07-21T07:04:44;7.88;;;4.25;;
35188;SDS011;21762;54.480;18.556;2022-07-21T07:07:13;5.15;;;4.10;;
35188;SDS011;21762;54.480;18.556;2022-07-21T07:09:41;7.63;;;4.18;;
35188;SDS011;21762;54.480;18.556;2022-07-21T07:12:09;9.30;;;3.92;;
35188;SDS011;21762;54.480;18.556;2022-07-21T07:14:57;9.50;;;4.35;;
35188;SDS011;21762;54.480;18.556;2022-07-21T07:17:25;5.75;;;3.88;;
35188;SDS011;21762;54.480;18.556;2022-07-21T07:19:54;5.13;;;3.85;;
35188;SDS011;21762;54.480;18.556;2022-07-21T07:22:23;4.90;;;3.75;;
35188;SDS011;21762;54.480;18.556;2022-07-21T07:24:52;6.75;;;4.22;;
35188;SDS011;21762;54.480;18.556;2022-07-21T07:27:20;6.35;;;3.90;;
35188;SDS011;21762;54.480;18.556;2022-07-21T07:29:49;7.35;;;3.80;;
35188;SDS011;21762;54.480;18.556;2022-07-21T07:32:17;10.02;;;3.95;;
35188;SDS011;21762;54.480;18.556;2022-07-21T07:34:45;6.35;;;4.15;;
35188;SDS011;21762;54.480;18.556;2022-07-21T07:37:13;6.07;;;3.90;;
35188;SDS011;21762;54.480;18.556;2022-07-21T07:39:43;7.97;;;4.05;;
35188;SDS011;21762;54.480;18.556;2022-07-21T07:42:11;7.03;;;4.38;;
35188;SDS011;21762;54.480;18.556;2022-07-21T07:44:39;10.30;;;4.10;;
35188;SDS011;21762;54.480;18.556;2022-07-21T07:47:07;7.20;;;3.92;;
35188;SDS011;21762;54.480;18.556;2022-07-21T07:49:36;7.13;;;4.05;;
35188;SDS011;21762;54.480;18.556;2022-07-21T07:52:04;6.53;;;4.20;;
35188;SDS011;21762;54.480;18.556;2022-07-21T07:54:32;8.55;;;3.85;;
35188;SDS011;21762;54.480;18.556;2022-07-21T07:57:02;5.95;;;3.85;;
35188;SDS011;21762;54.480;18.556;2022-07-21T07:59:30;5.18;;;3.85;;
35188;SDS011;21762;54.480;18.556;2022-07-21T08:01:58;9.18;;;3.97;;
35188;SDS011;21762;54.480;18.556;2022-07-21T08:04:27;10.25;;;4.70;;
35188;SDS011;21762;54.480;18.556;2022-07-21T08:06:55;6.47;;;4.10;;
35188;SDS011;21762;54.480;18.556;2022-07-21T08:09:23;5.18;;;3.90;;
35188;SDS011;21762;54.480;18.556;2022-07-21T08:11:51;7.57;;;4.50;;
35188;SDS011;21762;54.480;18.556;2022-07-21T08:14:22;7.75;;;4.50;;
35188;SDS011;21762;54.480;18.556;2022-07-21T08:16:50;7.25;;;3.88;;
35188;SDS011;21762;54.480;18.556;2022-07-21T08:19:18;7.78;;;4.10;;
35188;SDS011;21762;54.480;18.556;2022-07-21T08:21:47;11.32;;;5.28;;
35188;SDS011;21762;54.480;18.556;2022-07-21T08:24:35;10.30;;;3.70;;
35188;SDS011;21762;54.480;18.556;2022-07-21T08:27:09;12.30;;;4.07;;
35188;SDS011;21762;54.480;18.556;2022-07-21T08:29:38;5.32;;;3.70;;
35188;SDS011;21762;54.480;18.556;2022-07-21T08:32:08;6.15;;;3.85;;
35188;SDS011;21762;54.480;18.556;2022-07-21T08:34:37;8.00;;;4.40;;
35188;SDS011;21762;54.480;18.556;2022-07-21T08:37:05;5.15;;;3.80;;
35188;SDS011;21762;54.480;18.556;2022-07-21T08:39:34;10.45;;;4.10;;
35188;SDS011;21762;54.480;18.556;2022-07-21T08:42:05;9.48;;;5.03;;
35188;SDS011;21762;54.480;18.556;2022-07-21T08:44:35;9.23;;;4.05;;
35188;SDS011;21762;54.480;18.556;2022-07-21T08:47:05;8.85;;;3.78;;
35188;SDS011;21762;54.480;18.556;2022-07-21T08:49:34;12.70;;;3.88;;
35188;SDS011;21762;54.480;18.556;2022-07-21T08:52:05;5.57;;;4.10;;
35188;SDS011;21762;54.480;18.556;2022-07-21T08:54:35;6.55;;;4.13;;
35188;SDS011;21762;54.480;18.556;2022-07-21T08:57:03;9.05;;;3.90;;
35188;SDS011;21762;54.480;18.556;2022-07-21T08:59:32;5.22;;;4.13;;
35188;SDS011;21762;54.480;18.556;2022-07-21T09:02:00;4.50;;;3.13;;
35188;SDS011;21762;54.480;18.556;2022-07-21T09:04:30;7.43;;;4.00;;
35188;SDS011;21762;54.480;18.556;2022-07-21T09:07:06;6.25;;;4.05;;
35188;SDS011;21762;54.480;18.556;2022-07-21T09:09:35;9.45;;;4.38;;
35188;SDS011;21762;54.480;18.556;2022-07-21T09:12:03;12.18;;;5.70;;
35188;SDS011;21762;54.480;18.556;2022-07-21T09:14:34;8.23;;;4.30;;
35188;SDS011;21762;54.480;18.556;2022-07-21T09:17:03;10.68;;;4.90;;
35188;SDS011;21762;54.480;18.556;2022-07-21T09:19:37;10.03;;;4.70;;
35188;SDS011;21762;54.480;18.556;2022-07-21T09:22:11;11.70;;;5.47;;
35188;SDS011;21762;54.480;18.556;2022-07-21T09:24:41;6.45;;;4.72;;
35188;SDS011;21762;54.480;18.556;2022-07-21T09:27:09;8.40;;;4.60;;
35188;SDS011;21762;54.480;18.556;2022-07-21T09:29:40;8.57;;;4.55;;
35188;SDS011;21762;54.480;18.556;2022-07-21T09:32:14;6.15;;;4.90;;
35188;SDS011;21762;54.480;18.556;2022-07-21T09:34:48;11.52;;;5.00;;
35188;SDS011;21762;54.480;18.556;2022-07-21T09:37:17;11.00;;;5.25;;
35188;SDS011;21762;54.480;18.556;2022-07-21T09:39:54;8.10;;;4.90;;
35188;SDS011;21762;54.480;18.556;2022-07-21T09:42:23;6.30;;;5.32;;
35188;SDS011;21762;54.480;18.556;2022-07-21T09:44:54;6.47;;;4.13;;
35188;SDS011;21762;54.480;18.556;2022-07-21T09:47:25;10.57;;;4.57;;
35188;SDS011;21762;54.480;18.556;2022-07-21T09:49:57;12.55;;;5.53;;
35188;SDS011;21762;54.480;18.556;2022-07-21T09:52:46;11.70;;;4.57;;
35188;SDS011;21762;54.480;18.556;2022-07-21T09:55:16;9.35;;;4.88;;
35188;SDS011;21762;54.480;18.556;2022-07-21T09:57:44;9.00;;;4.80;;
35188;SDS011;21762;54.480;18.556;2022-07-21T10:00:14;11.77;;;4.80;;
35188;SDS011;21762;54.480;18.556;2022-07-21T10:02:45;11.40;;;4.93;;
35188;SDS011;21762;54.480;18.556;2022-07-21T10:05:16;13.07;;;6.00;;
35188;SDS011;21762;54.480;18.556;2022-07-21T10:10:15;9.57;;;4.75;;
35188;SDS011;21762;54.480;18.556;2022-07-21T10:12:44;8.18;;;5.30;;
35188;SDS011;21762;54.480;18.556;2022-07-21T10:15:13;9.05;;;5.05;;
35188;SDS011;21762;54.480;18.556;2022-07-21T10:17:41;10.65;;;5.05;;
35188;SDS011;21762;54.480;18.556;2022-07-21T10:20:13;10.73;;;5.00;;
35188;SDS011;21762;54.480;18.556;2022-07-21T10:22:49;11.20;;;5.10;;
35188;SDS011;21762;54.480;18.556;2022-07-21T10:25:25;13.25;;;5.30;;
35188;SDS011;21762;54.480;18.556;2022-07-21T10:30:41;10.90;;;5.57;;
35188;SDS011;21762;54.480;18.556;2022-07-21T10:33:10;12.68;;;5.40;;
35188;SDS011;21762;54.480;18.556;2022-07-21T10:35:41;11.57;;;5.47;;
35188;SDS011;21762;54.480;18.556;2022-07-21T10:38:24;7.78;;;5.00;;
35188;SDS011;21762;54.480;18.556;2022-07-21T10:40:54;7.38;;;5.25;;
35188;SDS011;21762;54.480;18.556;2022-07-21T10:43:36;14.18;;;5.10;;
35188;SDS011;21762;54.480;18.556;2022-07-21T10:49:09;11.18;;;4.60;;
35188;SDS011;21762;54.480;18.556;2022-07-21T10:51:38;9.10;;;4.80;;
35188;SDS011;21762;54.480;18.556;2022-07-21T11:02:45;9.13;;;4.80;;
35188;SDS011;21762;54.480;18.556;2022-07-21T11:05:14;12.35;;;4.22;;
35188;SDS011;21762;54.480;18.556;2022-07-21T11:10:48;9.07;;;5.38;;
35188;SDS011;21762;54.480;18.556;2022-07-21T11:13:18;12.93;;;5.47;;
35188;SDS011;21762;54.480;18.556;2022-07-21T11:15:53;8.02;;;4.95;;
35188;SDS011;21762;54.480;18.556;2022-07-21T11:18:28;11.27;;;4.30;;
35188;SDS011;21762;54.480;18.556;2022-07-21T11:21:08;6.63;;;4.38;;
35188;SDS011;21762;54.480;18.556;2022-07-21T11:23:40;10.57;;;4.68;;
35188;SDS011;21762;54.480;18.556;2022-07-21T11:26:11;7.05;;;4.05;;
35188;SDS011;21762;54.480;18.556;2022-07-21T11:28:40;9.15;;;4.25;;
35188;SDS011;21762;54.480;18.556;2022-07-21T11:31:09;9.32;;;4.22;;
35188;SDS011;21762;54.480;18.556;2022-07-21T11:33:39;9.03;;;4.27;;
35188;SDS011;21762;54.480;18.556;2022-07-21T11:36:08;6.53;;;4.47;;
35188;SDS011;21762;54.480;18.556;2022-07-21T11:38:42;11.88;;;4.50;;
35188;SDS011;21762;54.480;18.556;2022-07-21T11:41:24;10.88;;;4.18;;
35188;SDS011;21762;54.480;18.556;2022-07-21T11:43:52;9.38;;;4.32;;
35188;SDS011;21762;54.480;18.556;2022-07-21T11:46:20;9.95;;;5.03;;
35188;SDS011;21762;54.480;18.556;2022-07-21T11:48:59;11.32;;;4.60;;
35188;SDS011;21762;54.480;18.556;2022-07-21T11:51:28;9.25;;;4.63;;
35188;SDS011;21762;54.480;18.556;2022-07-21T11:53:57;10.50;;;4.22;;
35188;SDS011;21762;54.480;18.556;2022-07-21T11:56:25;8.40;;;4.63;;
35188;SDS011;21762;54.480;18.556;2022-07-21T11:59:07;9.80;;;4.70;;
35188;SDS011;21762;54.480;18.556;2022-07-21T12:01:47;8.75;;;4.68;;
35188;SDS011;21762;54.480;18.556;2022-07-21T12:04:26;8.38;;;4.90;;
35188;SDS011;21762;54.480;18.556;2022-07-21T12:07:13;10.98;;;4.40;;
35188;SDS011;21762;54.480;18.556;2022-07-21T12:09:46;11.30;;;4.88;;
35188;SDS011;21762;54.480;18.556;2022-07-21T12:12:27;10.30;;;4.95;;
35188;SDS011;21762;54.480;18.556;2022-07-21T12:14:56;10.82;;;4.40;;
35188;SDS011;21762;54.480;18.556;2022-07-21T12:19:59;10.05;;;4.28;;
35188;SDS011;21762;54.480;18.556;2022-07-21T12:22:35;7.45;;;4.13;;
35188;SDS011;21762;54.480;18.556;2022-07-21T12:25:05;9.82;;;4.28;;
35188;SDS011;21762;54.480;18.556;2022-07-21T12:27:35;7.50;;;4.40;;
35188;SDS011;21762;54.480;18.556;2022-07-21T12:30:06;9.95;;;4.10;;
35188;SDS011;21762;54.480;18.556;2022-07-21T12:32:43;7.68;;;4.38;;
35188;SDS011;21762;54.480;18.556;2022-07-21T12:35:18;12.95;;;4.20;;
35188;SDS011;21762;54.480;18.556;2022-07-21T12:41:29;9.32;;;3.55;;
35188;SDS011;21762;54.480;18.556;2022-07-21T12:43:57;10.25;;;4.30;;
35188;SDS011;21762;54.480;18.556;2022-07-21T12:46:28;8.57;;;4.07;;
35188;SDS011;21762;54.480;18.556;2022-07-21T12:49:02;11.02;;;4.28;;
35188;SDS011;21762;54.480;18.556;2022-07-21T12:51:32;11.70;;;4.32;;
35188;SDS011;21762;54.480;18.556;2022-07-21T12:54:00;10.93;;;4.80;;
35188;SDS011;21762;54.480;18.556;2022-07-21T12:56:30;9.60;;;4.40;;
35188;SDS011;21762;54.480;18.556;2022-07-21T12:59:01;13.68;;;4.20;;
35188;SDS011;21762;54.480;18.556;2022-07-21T13:01:31;7.60;;;3.72;;
35188;SDS011;21762;54.480;18.556;2022-07-21T13:04:01;10.15;;;3.50;;
35188;SDS011;21762;54.480;18.556;2022-07-21T13:06:30;7.05;;;4.28;;
35188;SDS011;21762;54.480;18.556;2022-07-21T13:08:58;6.85;;;4.10;;
35188;SDS011;21762;54.480;18.556;2022-07-21T13:11:26;12.30;;;4.22;;
35188;SDS011;21762;54.480;18.556;2022-07-21T13:13:56;6.13;;;3.97;;
35188;SDS011;21762;54.480;18.556;2022-07-21T13:16:26;9.25;;;3.60;;
35188;SDS011;21762;54.480;18.556;2022-07-21T13:18:55;10.13;;;4.18;;
35188;SDS011;21762;54.480;18.556;2022-07-21T13:21:24;6.82;;;4.10;;
35188;SDS011;21762;54.480;18.556;2022-07-21T13:23:52;7.85;;;4.32;;
35188;SDS011;21762;54.480;18.556;2022-07-21T13:26:20;5.93;;;4.53;;
35188;SDS011;21762;54.480;18.556;2022-07-21T13:28:48;6.38;;;4.05;;
35188;SDS011;21762;54.480;18.556;2022-07-21T13:31:18;6.55;;;4.18;;
35188;SDS011;21762;54.480;18.556;2022-07-21T13:33:47;5.93;;;3.90;;
35188;SDS011;21762;54.480;18.556;2022-07-21T13:36:15;6.15;;;3.45;;
35188;SDS011;21762;54.480;18.556;2022-07-21T13:38:43;8.48;;;4.28;;
35188;SDS011;21762;54.480;18.556;2022-07-21T13:41:16;7.97;;;3.97;;
35188;SDS011;21762;54.480;18.556;2022-07-21T13:44:05;9.85;;;4.13;;
35188;SDS011;21762;54.480;18.556;2022-07-21T13:46:35;7.35;;;4.00;;
35188;SDS011;21762;54.480;18.556;2022-07-21T13:49:03;6.82;;;3.58;;
35188;SDS011;21762;54.480;18.556;2022-07-21T13:51:31;6.90;;;3.90;;
35188;SDS011;21762;54.480;18.556;2022-07-21T13:53:59;5.70;;;3.80;;
35188;SDS011;21762;54.480;18.556;2022-07-21T13:56:27;6.60;;;4.30;;
35188;SDS011;21762;54.480;18.556;2022-07-21T13:58:55;8.75;;;3.78;;
35188;SDS011;21762;54.480;18.556;2022-07-21T14:01:23;13.57;;;5.30;;
35188;SDS011;21762;54.480;18.556;2022-07-21T14:03:56;13.50;;;4.40;;
35188;SDS011;21762;54.480;18.556;2022-07-21T14:06:25;9.45;;;4.63;;
35188;SDS011;21762;54.480;18.556;2022-07-21T14:08:53;8.70;;;4.28;;
35188;SDS011;21762;54.480;18.556;2022-07-21T14:11:21;8.20;;;4.40;;
35188;SDS011;21762;54.480;18.556;2022-07-21T14:13:54;10.50;;;4.22;;
35188;SDS011;21762;54.480;18.556;2022-07-21T14:16:22;9.73;;;4.45;;
35188;SDS011;21762;54.480;18.556;2022-07-21T14:18:54;7.15;;;3.95;;
35188;SDS011;21762;54.480;18.556;2022-07-21T14:21:24;12.65;;;4.40;;
35188;SDS011;21762;54.480;18.556;2022-07-21T14:23:53;7.65;;;4.35;;
35188;SDS011;21762;54.480;18.556;2022-07-21T14:26:35;7.85;;;4.65;;
35188;SDS011;21762;54.480;18.556;2022-07-21T14:29:04;4.72;;;3.97;;
35188;SDS011;21762;54.480;18.556;2022-07-21T14:31:34;9.13;;;4.05;;
35188;SDS011;21762;54.480;18.556;2022-07-21T14:34:03;6.80;;;3.55;;
35188;SDS011;21762;54.480;18.556;2022-07-21T14:36:32;8.25;;;3.75;;
35188;SDS011;21762;54.480;18.556;2022-07-21T14:39:00;11.48;;;4.38;;
35188;SDS011;21762;54.480;18.556;2022-07-21T14:41:29;8.38;;;4.20;;
35188;SDS011;21762;54.480;18.556;2022-07-21T14:43:57;10.40;;;4.03;;
35188;SDS011;21762;54.480;18.556;2022-07-21T14:46:25;6.68;;;4.22;;
35188;SDS011;21762;54.480;18.556;2022-07-21T14:48:53;8.80;;;4.07;;
35188;SDS011;21762;54.480;18.556;2022-07-21T14:51:22;12.38;;;4.30;;
35188;SDS011;21762;54.480;18.556;2022-07-21T14:53:51;5.80;;;4.10;;
35188;SDS011;21762;54.480;18.556;2022-07-21T14:56:19;7.80;;;4.45;;
35188;SDS011;21762;54.480;18.556;2022-07-21T14:58:48;8.32;;;4.03;;
35188;SDS011;21762;54.480;18.556;2022-07-21T15:01:16;5.97;;;3.90;;
35188;SDS011;21762;54.480;18.556;2022-07-21T15:03:44;9.93;;;3.85;;
35188;SDS011;21762;54.480;18.556;2022-07-21T15:06:12;8.07;;;3.53;;
35188;SDS011;21762;54.480;18.556;2022-07-21T15:08:41;6.05;;;4.03;;
35188;SDS011;21762;54.480;18.556;2022-07-21T15:11:10;6.97;;;4.00;;